Time;durP1;ratioP1;P1;durP2;ratioP2;P2;SDS_P1;SDS_P2;PMS_P1;PMS_P2;Temp;Humidity;BMP_temperature;BMP_pressure;BME280_temperature;BME280_humidity;BME280_pressure;Samples;Min_cycle;Max_cycle;Signal;HPM_P1;HPM_P2
2021/05/11 00:01:22;;;;;;;5.77;2.07;;;16.80;99.90;;;;;;5114763;28;20219;-80
2021/05/11 00:03:48;;;;;;;4.67;2.17;;;16.80;1.00;;;;;;5114115;28;20198;-80
2021/05/11 00:06:14;;;;;;;3.83;1.87;;;16.70;1.00;;;;;;5115674;28;20163;-80
2021/05/11 00:08:40;;;;;;;5.80;1.97;;;16.70;99.90;;;;;;5114521;28;20218;-80
2021/05/11 00:11:05;;;;;;;4.07;1.90;;;16.60;99.90;;;;;;5115839;28;20163;-81
2021/05/11 00:13:31;;;;;;;3.73;1.60;;;16.70;99.90;;;;;;5116332;28;20182;-80
2021/05/11 00:15:58;;;;;;;4.63;1.90;;;16.80;1.00;;;;;;5115750;28;20665;-79
2021/05/11 00:18:24;;;;;;;5.53;1.80;;;16.60;99.90;;;;;;5115430;28;20209;-79
2021/05/11 00:20:50;;;;;;;5.50;1.97;;;16.80;1.00;;;;;;5114200;28;20536;-79
2021/05/11 00:23:15;;;;;;;4.63;1.87;;;16.90;1.00;;;;;;5114311;28;20190;-80
2021/05/11 00:25:41;;;;;;;6.13;2.00;;;17.10;1.00;;;;;;5115541;28;20167;-81
2021/05/11 00:28:06;;;;;;;4.20;1.90;;;17.10;1.00;;;;;;5114009;28;20670;-80
2021/05/11 00:30:32;;;;;;;5.03;2.43;;;17.20;99.90;;;;;;5115662;28;20175;-80
2021/05/11 00:32:58;;;;;;;4.30;1.83;;;17.10;1.00;;;;;;5114593;28;20187;-80
2021/05/11 00:35:24;;;;;;;6.17;2.17;;;17.10;1.00;;;;;;5115678;28;20179;-79
2021/05/11 00:37:49;;;;;;;6.57;2.40;;;17.00;99.90;;;;;;5115755;28;20171;-80
2021/05/11 00:40:15;;;;;;;3.97;1.93;;;16.80;1.00;;;;;;5115550;28;20167;-79
2021/05/11 00:42:41;;;;;;;6.63;1.83;;;16.70;1.00;;;;;;5115075;28;20167;-79
2021/05/11 00:45:07;;;;;;;4.07;2.20;;;16.60;97.50;;;;;;5115048;28;20161;-79
2021/05/11 00:47:33;;;;;;;6.87;2.37;;;16.40;99.90;;;;;;5114611;28;20678;-79
2021/05/11 00:50:00;;;;;;;5.23;2.00;;;16.40;99.90;;;;;;5115068;28;20182;-79
2021/05/11 00:52:27;;;;;;;5.97;2.07;;;16.30;1.00;;;;;;5115061;28;20612;-79
2021/05/11 00:54:54;;;;;;;3.90;1.70;;;16.20;99.90;;;;;;5115182;28;20634;-78
2021/05/11 00:57:20;;;;;;;6.03;2.50;;;16.30;99.90;;;;;;5114616;28;20174;-79
2021/05/11 00:59:47;;;;;;;9.40;2.40;;;16.50;1.00;;;;;;5114800;28;20175;-79
2021/05/11 01:02:12;;;;;;;7.93;2.40;;;16.60;99.90;;;;;;5114490;28;20269;-79
2021/05/11 01:04:38;;;;;;;7.80;2.40;;;16.60;1.00;;;;;;5114519;28;20238;-79
2021/05/11 01:07:04;;;;;;;5.33;2.50;;;16.60;99.90;;;;;;5112942;28;20676;-81
2021/05/11 01:09:31;;;;;;;7.67;2.50;;;16.50;99.90;;;;;;5114849;28;20171;-79
2021/05/11 01:11:57;;;;;;;6.70;2.50;;;16.50;99.90;;;;;;5115993;28;20163;-79
2021/05/11 01:14:27;;;;;;;7.27;2.87;;;16.60;1.00;;;;;;5113329;28;20182;-78
2021/05/11 01:16:59;;;;;;;6.87;2.43;;;16.60;1.00;;;;;;5113006;28;20183;-79
2021/05/11 01:19:35;;;;;;;6.50;2.53;;;16.50;99.90;;;;;;5113113;28;20232;-79
2021/05/11 01:24:37;;;;;;;7.27;2.80;;;16.40;1.00;;;;;;5114534;28;20635;-79
2021/05/11 01:29:40;;;;;;;7.27;3.27;;;16.30;1.00;;;;;;5113964;28;20258;-80
2021/05/11 01:49:34;;;;;;;6.87;2.70;;;16.20;99.90;;;;;;5070970;28;20535;-78
2021/05/11 01:51:23;;;;;;;5.73;2.10;;;16.20;99.90;;;;;;5082806;28;20183;-78
2021/05/11 02:23:29;;;;;;;10.90;3.33;;;16.00;99.90;;;;;;5113104;28;20217;-79
2021/05/11 02:25:56;;;;;;;7.67;3.03;;;16.00;1.00;;;;;;5113728;28;20189;-79
2021/05/11 02:28:23;;;;;;;7.63;2.97;;;15.70;1.00;;;;;;5112774;28;20207;-79
2021/05/11 02:30:49;;;;;;;6.83;3.00;;;15.70;12.20;;;;;;5112074;28;20549;-79
2021/05/11 02:33:15;;;;;;;8.93;3.57;;;15.70;31.50;;;;;;5113204;28;20186;-79
2021/05/11 02:35:40;;;;;;;6.60;2.80;;;15.70;50.50;;;;;;5113441;28;20170;-79
2021/05/11 02:38:06;;;;;;;8.67;2.97;;;15.60;99.90;;;;;;5113363;28;20173;-79
2021/05/11 02:40:32;;;;;;;6.50;2.93;;;15.50;99.90;;;;;;5113166;28;20157;-80
2021/05/11 02:43:04;;;;;;;9.33;3.37;;;15.30;99.90;;;;;;5113098;28;20163;-79
2021/05/11 02:45:32;;;;;;;5.53;2.83;;;15.40;99.90;;;;;;5113043;28;20169;-78
2021/05/11 02:47:57;;;;;;;8.17;2.97;;;15.40;99.90;;;;;;5113043;28;20198;-78
2021/05/11 02:50:29;;;;;;;5.57;3.00;;;15.60;99.90;;;;;;5113138;28;20176;-79
2021/05/11 02:52:55;;;;;;;6.90;3.20;;;15.60;99.90;;;;;;5113391;28;20200;-80
2021/05/11 02:55:22;;;;;;;8.50;2.80;;;15.60;99.90;;;;;;5111742;28;20748;-80
2021/05/11 02:57:48;;;;;;;9.07;3.23;;;15.60;99.90;;;;;;5117999;28;20215;-78
2021/05/11 03:00:16;;;;;;;8.27;3.10;;;15.70;99.90;;;;;;5118361;28;20193;-79
2021/05/11 03:02:43;;;;;;;9.33;2.80;;;15.70;99.90;;;;;;5120086;28;20246;-79
2021/05/11 03:05:09;;;;;;;5.87;2.40;;;15.60;99.90;;;;;;5119599;28;20255;-79
2021/05/11 03:07:35;;;;;;;9.40;2.87;;;15.30;99.90;;;;;;5119700;28;20198;-79
2021/05/11 03:10:01;;;;;;;6.63;2.40;;;15.20;99.90;;;;;;5118472;28;20171;-78
2021/05/11 03:12:27;;;;;;;8.57;2.90;;;15.10;1.00;;;;;;5119366;28;20351;-79
2021/05/11 03:14:53;;;;;;;9.03;3.00;;;15.10;1.00;;;;;;5118389;28;20273;-79
2021/05/11 03:17:18;;;;;;;9.80;3.20;;;15.10;1.00;;;;;;5119588;28;20172;-78
2021/05/11 03:19:44;;;;;;;6.33;2.40;;;15.20;99.90;;;;;;5119674;28;20261;-78
2021/05/11 03:22:10;;;;;;;5.37;2.70;;;15.10;1.00;;;;;;5119576;28;20166;-78
2021/05/11 03:24:37;;;;;;;9.03;2.80;;;15.20;1.00;;;;;;5119432;28;20167;-79
2021/05/11 03:27:03;;;;;;;6.30;2.53;;;15.10;1.00;;;;;;5119225;28;20166;-78
2021/05/11 03:29:29;;;;;;;10.70;3.00;;;15.00;1.00;;;;;;5119197;28;20206;-78
2021/05/11 03:31:55;;;;;;;8.73;3.10;;;14.90;1.00;;;;;;5119402;28;20192;-78
2021/05/11 03:34:20;;;;;;;7.37;2.43;;;15.10;1.00;;;;;;5119433;28;20196;-79
2021/05/11 03:36:46;;;;;;;8.70;3.17;;;15.20;1.00;;;;;;5117880;28;20240;-78
2021/05/11 03:39:12;;;;;;;8.40;3.00;;;15.10;1.00;;;;;;5119579;28;20179;-79
2021/05/11 03:42:03;;;;;;;11.87;3.33;;;15.10;1.00;;;;;;5117746;28;20177;-79
2021/05/11 03:44:28;;;;;;;8.23;3.30;;;15.10;99.90;;;;;;5117724;28;20550;-79
2021/05/11 03:46:54;;;;;;;9.93;3.17;;;15.00;1.00;;;;;;5119379;28;20190;-78
2021/05/11 03:49:20;;;;;;;9.83;3.63;;;14.90;1.00;;;;;;5119409;28;20234;-79
2021/05/11 03:51:45;;;;;;;7.13;3.07;;;15.00;1.00;;;;;;5119413;28;20166;-79
2021/05/11 03:54:12;;;;;;;7.03;3.30;;;14.80;1.00;;;;;;5119314;28;20186;-79
2021/05/11 03:56:38;;;;;;;9.27;3.53;;;14.60;1.00;;;;;;5119200;28;20239;-79
2021/05/11 03:59:04;;;;;;;8.60;3.67;;;14.50;1.00;;;;;;5119437;28;20261;-79
2021/05/11 04:01:30;;;;;;;10.03;3.57;;;14.40;1.00;;;;;;5119328;28;20175;-80
2021/05/11 04:03:56;;;;;;;7.77;3.60;;;14.50;1.00;;;;;;5119110;28;20204;-79
2021/05/11 04:06:22;;;;;;;9.50;3.60;;;14.60;1.00;;;;;;5119097;28;20167;-79
2021/05/11 04:16:45;;;;;;;11.33;3.47;;;15.00;1.00;;;;;;5115808;28;20249;-78
2021/05/11 04:19:10;;;;;;;6.80;2.90;;;15.10;1.00;;;;;;5115925;28;20180;-79
2021/05/11 04:21:37;;;;;;;10.80;3.20;;;15.10;1.00;;;;;;5114061;28;20175;-79
2021/05/11 04:24:03;;;;;;;10.97;3.77;;;15.00;1.00;;;;;;5115382;28;20562;-79
2021/05/11 04:26:29;;;;;;;10.77;4.03;;;15.00;1.00;;;;;;5113612;28;20177;-79
2021/05/11 04:28:55;;;;;;;8.83;3.33;;;14.90;1.00;;;;;;5115216;28;20202;-79
2021/05/11 04:31:21;;;;;;;8.57;3.63;;;14.90;1.00;;;;;;5097092;28;20597;-81
2021/05/11 04:33:47;;;;;;;9.27;3.97;;;14.90;1.00;;;;;;5115333;28;20212;-80
2021/05/11 04:36:14;;;;;;;7.97;3.63;;;14.80;1.00;;;;;;5115580;28;20721;-80
2021/05/11 04:38:40;;;;;;;8.37;4.17;;;14.80;1.00;;;;;;5115265;28;20233;-80
2021/05/11 04:41:07;;;;;;;8.37;3.83;;;14.70;1.00;;;;;;5115259;28;20205;-79
2021/05/11 04:43:35;;;;;;;15.70;4.67;;;14.80;1.00;;;;;;5113858;28;20502;-80
2021/05/11 04:46:09;;;;;;;11.67;4.37;;;14.90;1.00;;;;;;5115222;28;20168;-79
2021/05/11 04:48:36;;;;;;;8.83;4.33;;;14.60;1.00;;;;;;5115164;28;20303;-79
2021/05/11 04:51:02;;;;;;;9.40;3.90;;;14.50;1.00;;;;;;5115330;28;20163;-79
2021/05/11 04:53:27;;;;;;;11.77;4.67;;;14.60;1.00;;;;;;5113639;28;20654;-79
2021/05/11 04:55:54;;;;;;;12.37;4.73;;;14.60;1.00;;;;;;5096786;28;20177;-80
2021/05/11 04:58:20;;;;;;;8.13;4.27;;;14.50;1.00;;;;;;5115528;28;20160;-78
2021/05/11 05:00:45;;;;;;;12.13;4.70;;;14.50;1.00;;;;;;5115352;28;20641;-79
2021/05/11 05:03:15;;;;;;;12.27;4.80;;;14.70;1.00;;;;;;5115012;28;20627;-77
2021/05/11 05:05:41;;;;;;;13.23;5.03;;;14.60;1.00;;;;;;5115227;28;20161;-79
2021/05/11 05:08:06;;;;;;;8.03;4.67;;;14.30;1.00;;;;;;5114603;28;20203;-81
2021/05/11 05:10:32;;;;;;;14.93;5.60;;;14.20;1.00;;;;;;5114676;28;20659;-78
2021/05/11 05:12:58;;;;;;;9.33;5.10;;;14.10;1.00;;;;;;5114740;28;20174;-79
2021/05/11 05:15:23;;;;;;;16.93;5.43;;;14.20;1.00;;;;;;5114667;28;20167;-80
2021/05/11 05:17:49;;;;;;;11.90;5.63;;;14.10;1.00;;;;;;5114633;28;20197;-79
2021/05/11 05:20:15;;;;;;;15.63;5.47;;;14.10;1.00;;;;;;5114037;28;20645;-80
2021/05/11 05:22:42;;;;;;;14.70;5.43;;;14.30;1.00;;;;;;5112910;28;20175;-80
2021/05/11 05:25:25;;;;;;;14.60;5.23;;;14.50;1.00;;;;;;5113355;28;20174;-80
2021/05/11 05:30:19;;;;;;;14.97;5.13;;;14.70;1.00;;;;;;5114148;28;20176;-78
2021/05/11 05:32:45;;;;;;;13.97;5.03;;;14.60;1.00;;;;;;5113896;28;20254;-79
2021/05/11 05:35:11;;;;;;;15.63;5.80;;;14.60;1.00;;;;;;5114253;28;20259;-80
2021/05/11 05:37:36;;;;;;;13.07;6.17;;;14.70;1.00;;;;;;5113530;28;20167;-80
2021/05/11 05:40:05;;;;;;;14.03;5.70;;;14.60;1.00;;;;;;5113889;28;20639;-80
2021/05/11 05:42:31;;;;;;;15.93;5.40;;;14.70;1.00;;;;;;5112680;28;20654;-78
2021/05/11 05:44:56;;;;;;;16.20;6.03;;;14.80;1.00;;;;;;5113732;28;20246;-76
2021/05/11 05:47:22;;;;;;;16.00;5.43;;;15.00;1.00;;;;;;5113322;28;20632;-78
2021/05/11 05:49:51;;;;;;;16.03;5.10;;;15.20;1.00;;;;;;5113017;28;20174;-79
2021/05/11 05:52:33;;;;;;;9.63;4.70;;;15.30;1.00;;;;;;5113304;28;20236;-78
2021/05/11 05:54:59;;;;;;;11.60;5.10;;;15.40;1.00;;;;;;5113542;28;20256;-78
2021/05/11 05:57:24;;;;;;;10.47;4.73;;;15.50;1.00;;;;;;5113121;28;20261;-79
2021/05/11 05:59:50;;;;;;;13.23;4.57;;;15.60;99.90;;;;;;5113498;28;20208;-79
2021/05/11 06:02:18;;;;;;;14.00;4.40;;;15.40;1.00;;;;;;5113408;28;20703;-78
2021/05/11 06:04:44;;;;;;;12.33;5.03;;;15.30;1.00;;;;;;5111121;28;20173;-78
2021/05/11 06:07:12;;;;;;;12.53;4.83;;;15.50;1.00;;;;;;5113083;28;20213;-78
2021/05/11 06:09:38;;;;;;;10.03;4.33;;;15.60;1.00;;;;;;5113092;28;20174;-78
2021/05/11 06:12:09;;;;;;;10.57;5.07;;;15.50;1.00;;;;;;5112917;28;20631;-77
2021/05/11 06:17:21;;;;;;;10.23;4.40;;;15.80;1.00;;;;;;5113399;28;20329;-79
2021/05/11 06:19:48;;;;;;;10.23;4.10;;;16.00;99.90;;;;;;5112738;28;20161;-77
2021/05/11 06:22:15;;;;;;;10.70;4.70;;;15.90;99.90;;;;;;5112676;28;20205;-78
2021/05/11 06:24:42;;;;;;;12.00;4.73;;;15.90;99.90;;;;;;5112442;28;20163;-77
2021/05/11 06:27:10;;;;;;;11.80;4.77;;;16.10;99.90;;;;;;5103735;28;20190;-78
2021/05/11 06:29:38;;;;;;;11.57;4.63;;;16.20;99.90;;;;;;5108395;28;20273;-77
2021/05/11 06:32:05;;;;;;;11.10;4.80;;;16.20;99.90;;;;;;5110639;28;20182;-80
2021/05/11 06:34:31;;;;;;;14.60;4.87;;;16.30;99.90;;;;;;5109790;28;20565;-79
2021/05/11 06:36:58;;;;;;;13.43;5.23;;;16.40;99.90;;;;;;5112022;28;20207;-80
2021/05/11 06:39:24;;;;;;;13.70;5.33;;;16.40;99.90;;;;;;5110450;28;20167;-79
2021/05/11 06:41:51;;;;;;;15.50;5.40;;;16.50;56.10;;;;;;5111490;28;20166;-79
2021/05/11 06:50:35;;;;;;;10.97;5.10;;;16.60;35.80;;;;;;5111909;28;20737;-81
2021/05/11 06:54:59;;;;;;;10.50;3.70;;;16.90;1.00;;;;;;5111716;28;20171;-79
2021/05/11 06:57:25;;;;;;;9.23;4.83;;;16.90;99.90;;;;;;5110432;28;20175;-79
2021/05/11 06:59:51;;;;;;;11.70;4.77;;;17.00;99.90;;;;;;5110949;28;20163;-79
2021/05/11 07:02:16;;;;;;;17.00;5.47;;;17.20;1.00;;;;;;5111313;28;20194;-79
2021/05/11 07:04:43;;;;;;;9.90;3.97;;;17.40;1.00;;;;;;5108713;28;20194;-77
2021/05/11 07:07:12;;;;;;;9.63;4.00;;;17.60;1.00;;;;;;5111599;28;20171;-78
2021/05/11 07:14:29;;;;;;;9.37;4.30;;;17.90;1.00;;;;;;5113385;28;20185;-79
2021/05/11 07:16:55;;;;;;;8.67;4.10;;;18.00;1.00;;;;;;5111205;28;20180;-79
2021/05/11 07:19:21;;;;;;;12.77;4.30;;;18.00;99.90;;;;;;5111074;28;20194;-78
2021/05/11 07:21:47;;;;;;;14.20;4.33;;;17.90;1.00;;;;;;5113703;28;20175;-78
2021/05/11 07:24:12;;;;;;;13.47;4.37;;;18.10;1.00;;;;;;5110980;28;20186;-78
2021/05/11 07:26:59;;;;;;;8.40;3.63;;;18.00;1.00;;;;;;5109039;28;20308;-79
2021/05/11 07:32:07;;;;;;;9.57;3.33;;;18.10;99.90;;;;;;5110758;28;20222;-78
2021/05/11 07:34:33;;;;;;;8.17;3.30;;;18.20;99.90;;;;;;5109507;28;20214;-80
2021/05/11 07:36:59;;;;;;;10.37;3.77;;;18.10;1.00;;;;;;5110784;28;20174;-77
2021/05/11 07:39:25;;;;;;;9.13;3.10;;;18.00;99.90;;;;;;5110126;28;20170;-80
2021/05/11 07:41:51;;;;;;;9.00;3.70;;;18.10;99.90;;;;;;5111017;28;20167;-79
2021/05/11 07:44:16;;;;;;;7.73;3.80;;;18.00;1.00;;;;;;5114255;28;20171;-81
2021/05/11 07:46:59;;;;;;;7.87;2.80;;;18.00;1.00;;;;;;5116315;27;20228;-80
2021/05/11 07:49:50;;;;;;;10.93;3.20;;;18.00;99.90;;;;;;5107628;28;20229;-79
2021/05/11 08:16:11;;;;;;;6.37;2.50;;;19.10;1.00;;;;;;5111170;28;20166;-78
2021/05/11 08:29:21;;;;;;;8.60;2.43;;;19.40;99.90;;;;;;5111650;28;20716;-80
2021/05/11 08:31:47;;;;;;;5.97;2.47;;;19.50;99.90;;;;;;5111795;28;20179;-82
2021/05/11 08:34:13;;;;;;;6.73;2.93;;;19.70;99.90;;;;;;5113197;28;20259;-79
2021/05/11 08:36:38;;;;;;;11.53;3.57;;;19.90;99.90;;;;;;5113192;28;20750;-80
2021/05/11 08:39:04;;;;;;;7.80;3.17;;;19.70;1.00;;;;;;5113066;28;20171;-80
2021/05/11 08:41:30;;;;;;;8.00;3.03;;;19.70;99.90;;;;;;5113336;28;20225;-79
2021/05/11 08:43:56;;;;;;;6.47;2.83;;;19.60;99.90;;;;;;5113061;28;20350;-78
2021/05/11 08:46:22;;;;;;;7.97;3.03;;;19.40;99.90;;;;;;5113129;28;21044;-79
2021/05/11 08:48:49;;;;;;;7.10;2.87;;;19.20;99.90;;;;;;5111552;28;20673;-79
2021/05/11 09:08:11;;;;;;;6.83;2.57;;;20.10;6.00;;;;;;5114081;28;20672;-80
2021/05/11 09:27:39;;;;;;;10.33;2.60;;;20.50;1.00;;;;;;5128992;27;20198;-81
2021/05/11 09:30:14;;;;;;;4.33;1.83;;;20.40;1.00;;;;;;5134274;27;20267;-78
2021/05/11 09:32:52;;;;;;;7.00;2.17;;;20.00;1.00;;;;;;5134157;27;20170;-78
2021/05/11 10:49:29;;;;;;;8.60;2.40;;;21.80;1.00;;;;;;5111058;28;20350;-79
2021/05/11 10:52:29;;;;;;;6.63;2.30;;;22.00;1.00;;;;;;5111025;28;20699;-80
2021/05/11 10:55:11;;;;;;;6.33;1.80;;;22.10;1.00;;;;;;5111056;28;20642;-79
2021/05/11 11:03:14;;;;;;;7.37;1.97;;;21.30;99.90;;;;;;5091104;28;20289;-79
2021/05/11 11:05:46;;;;;;;7.17;1.90;;;20.90;99.90;;;;;;5090801;28;20168;-80
2021/05/11 11:08:32;;;;;;;5.50;1.80;;;20.80;99.90;;;;;;5090946;28;20232;-78
2021/05/11 11:11:09;;;;;;;4.63;1.57;;;20.70;1.00;;;;;;5090698;28;20180;-79
2021/05/11 11:13:44;;;;;;;5.50;1.63;;;20.70;1.00;;;;;;5090707;28;20165;-78
2021/05/11 11:16:10;;;;;;;6.80;1.57;;;20.80;99.90;;;;;;5090755;28;20257;-79
2021/05/11 11:18:36;;;;;;;7.17;1.90;;;20.70;99.90;;;;;;5098746;28;20247;-78
2021/05/11 11:22:01;;;;;;;7.47;2.17;;;20.60;99.90;;;;;;5114600;28;20259;-79
2021/05/11 11:23:55;;;;;;;5.07;1.97;;;20.60;99.90;;;;;;5103045;28;20614;-78
2021/05/11 11:26:28;;;;;;;7.10;1.70;;;20.50;99.90;;;;;;5103265;28;20181;-78
2021/05/11 11:29:04;;;;;;;6.33;1.60;;;20.40;99.90;;;;;;5094683;28;20203;-78
2021/05/11 11:31:33;;;;;;;5.53;1.80;;;20.30;99.90;;;;;;5094286;28;20190;-80
2021/05/11 11:34:24;;;;;;;5.50;1.77;;;20.30;99.90;;;;;;5094235;28;20259;-80
2021/05/11 11:36:59;;;;;;;4.27;1.87;;;20.60;99.90;;;;;;5094870;28;20302;-78
2021/05/11 11:39:33;;;;;;;6.63;1.50;;;20.70;99.90;;;;;;5094345;28;20159;-78
2021/05/11 11:42:04;;;;;;;4.77;1.60;;;20.70;99.90;;;;;;5076694;28;20171;-78
2021/05/11 11:44:34;;;;;;;3.90;1.27;;;20.80;99.90;;;;;;5076546;28;20263;-78
2021/05/11 11:47:03;;;;;;;5.10;1.40;;;21.30;99.90;;;;;;5094584;28;20319;-78
2021/05/11 11:49:32;;;;;;;5.83;1.50;;;21.80;99.90;;;;;;5101374;28;20205;-78
2021/05/11 11:52:13;;;;;;;4.63;1.30;;;21.90;99.90;;;;;;5111912;28;20173;-78
2021/05/11 12:00:28;;;;;;;3.27;1.10;;;21.50;99.90;;;;;;5114418;28;20188;-79
2021/05/11 12:03:00;;;;;;;4.30;1.70;;;21.10;99.90;;;;;;5114140;28;20277;-78
2021/05/11 12:05:38;;;;;;;5.83;1.57;;;20.80;99.90;;;;;;5113941;28;20174;-80
2021/05/11 12:10:46;;;;;;;8.30;2.63;;;20.50;99.90;;;;;;5114047;28;20210;-79
2021/05/11 12:13:13;;;;;;;4.47;1.63;;;20.60;99.90;;;;;;5114273;28;20179;-79
2021/05/11 12:15:40;;;;;;;3.60;1.40;;;20.80;99.90;;;;;;5114030;28;20180;-79
2021/05/11 12:18:18;;;;;;;6.03;1.33;;;21.10;99.90;;;;;;5102890;28;20257;-78
2021/05/11 12:20:45;;;;;;;3.87;1.23;;;21.30;99.90;;;;;;5106217;28;20542;-79
2021/05/11 12:23:16;;;;;;;5.47;1.67;;;21.30;99.90;;;;;;5109983;28;20169;-79
2021/05/11 12:25:52;;;;;;;5.47;1.33;;;21.30;99.90;;;;;;5107584;28;20632;-79
2021/05/11 12:28:32;;;;;;;5.23;1.53;;;20.90;99.90;;;;;;5097116;28;20679;-81
2021/05/11 12:30:58;;;;;;;4.60;1.60;;;20.50;99.90;;;;;;5112916;28;20182;-80
2021/05/11 12:33:32;;;;;;;5.90;1.83;;;20.00;1.00;;;;;;5113840;28;20202;-79
2021/05/11 12:36:02;;;;;;;8.43;2.03;;;18.80;1.00;;;;;;5113313;28;20567;-80
2021/05/11 12:38:30;;;;;;;5.70;2.03;;;17.50;99.90;;;;;;5113800;28;20220;-79
2021/05/11 12:43:43;;;;;;;8.60;1.80;;;16.70;1.00;;;;;;5111360;28;20175;-79
2021/05/11 12:46:17;;;;;;;7.53;2.20;;;16.50;1.00;;;;;;5101682;28;20186;-80
2021/05/11 12:48:55;;;;;;;7.40;2.20;;;16.20;1.00;;;;;;5092937;28;20353;-79
2021/05/11 12:51:41;;;;;;;6.83;2.20;;;16.20;99.90;;;;;;5092353;28;20263;-79
2021/05/11 12:54:40;;;;;;;8.93;2.17;;;16.10;1.00;;;;;;5092436;28;20231;-79
2021/05/11 12:57:20;;;;;;;8.17;2.70;;;15.80;1.00;;;;;;5095263;28;20579;-79
2021/05/11 13:27:16;;;;;;;5.30;1.80;;;15.50;1.00;;;;;;5095035;28;20225;-77
2021/05/11 13:29:52;;;;;;;5.20;1.50;;;15.60;1.00;;;;;;5092269;28;20224;-79
2021/05/11 13:32:42;;;;;;;4.63;1.67;;;15.30;1.00;;;;;;5092557;28;20171;-78
2021/05/11 13:35:08;;;;;;;3.60;1.60;;;15.30;1.00;;;;;;5091090;28;20623;-79
2021/05/11 13:37:34;;;;;;;4.37;1.80;;;15.20;1.00;;;;;;5091370;28;20168;-79
2021/05/11 13:40:01;;;;;;;3.47;2.03;;;15.30;1.00;;;;;;5072858;28;20188;-77
2021/05/11 13:42:27;;;;;;;6.00;1.90;;;15.40;1.00;;;;;;5092455;28;20167;-78
2021/05/11 13:44:53;;;;;;;6.63;1.90;;;15.50;1.00;;;;;;5092123;28;20171;-78
2021/05/11 13:47:20;;;;;;;6.33;1.97;;;15.60;1.00;;;;;;5091356;28;20176;-78
2021/05/11 13:49:49;;;;;;;4.20;1.87;;;15.90;1.00;;;;;;5091692;28;20247;-78
2021/05/11 13:52:14;;;;;;;6.63;2.00;;;15.80;1.00;;;;;;5092056;28;20171;-79
2021/05/11 13:54:41;;;;;;;4.27;2.00;;;15.80;1.00;;;;;;5091697;28;20243;-79
2021/05/11 13:57:22;;;;;;;6.83;2.17;;;15.90;1.00;;;;;;5090720;28;20171;-79
2021/05/11 14:02:48;;;;;;;4.43;1.43;;;16.00;1.00;;;;;;5091766;28;20211;-78
2021/05/11 14:05:15;;;;;;;4.00;1.60;;;16.00;99.90;;;;;;5091218;28;20266;-80
2021/05/11 14:07:41;;;;;;;4.83;1.93;;;16.30;99.90;;;;;;5091591;28;20177;-79
2021/05/11 14:10:08;;;;;;;7.30;2.30;;;16.40;99.90;;;;;;5091686;28;20533;-78
2021/05/11 14:12:33;;;;;;;7.67;2.70;;;16.40;99.90;;;;;;5090957;28;20270;-77
2021/05/11 14:14:59;;;;;;;5.57;2.17;;;16.40;45.20;;;;;;5091469;28;20261;-78
2021/05/11 14:17:25;;;;;;;4.40;2.00;;;16.30;99.90;;;;;;5090668;28;20199;-79
2021/05/11 14:19:51;;;;;;;7.10;2.20;;;16.40;14.70;;;;;;5099860;28;20167;-78
2021/05/11 14:22:20;;;;;;;4.63;2.00;;;16.50;99.90;;;;;;5109834;28;20181;-79
2021/05/11 14:24:46;;;;;;;3.93;1.90;;;16.50;99.90;;;;;;5108582;28;20167;-77
2021/05/11 14:27:12;;;;;;;6.13;2.00;;;16.50;99.90;;;;;;5101817;27;20185;-77
2021/05/11 14:29:38;;;;;;;5.30;1.90;;;16.50;99.90;;;;;;5111596;28;20217;-78
2021/05/11 14:32:04;;;;;;;3.77;1.90;;;16.50;1.00;;;;;;5111429;28;20175;-78
2021/05/11 14:34:29;;;;;;;7.63;2.37;;;16.50;91.30;;;;;;5111534;28;20195;-78
2021/05/11 14:36:55;;;;;;;5.10;1.90;;;16.50;1.00;;;;;;5108108;28;20678;-78
2021/05/11 14:39:21;;;;;;;5.70;2.00;;;16.50;1.00;;;;;;5111292;28;20269;-79
2021/05/11 14:41:52;;;;;;;5.90;2.17;;;16.60;1.00;;;;;;5111231;28;20223;-78
2021/05/11 14:44:19;;;;;;;3.97;2.00;;;16.70;46.50;;;;;;5110893;28;20271;-79
2021/05/11 14:46:45;;;;;;;4.30;1.60;;;16.90;99.90;;;;;;5111057;28;20179;-80
2021/05/11 14:49:10;;;;;;;4.93;1.97;;;16.70;26.40;;;;;;5092247;28;20257;-79
2021/05/11 14:51:37;;;;;;;5.07;2.10;;;16.80;1.00;;;;;;5110652;28;20240;-79
2021/05/11 14:54:03;;;;;;;4.70;1.73;;;16.80;28.10;;;;;;5107738;28;20202;-78
2021/05/11 14:56:28;;;;;;;3.67;1.73;;;16.80;99.90;;;;;;5090827;28;20654;-78
2021/05/11 14:58:54;;;;;;;5.10;1.90;;;16.80;99.90;;;;;;5090898;28;20175;-79
2021/05/11 15:01:20;;;;;;;4.90;1.80;;;16.80;1.00;;;;;;5090361;28;20216;-78
2021/05/11 15:03:45;;;;;;;5.73;2.10;;;16.80;99.90;;;;;;5090855;28;20191;-80
2021/05/11 15:06:11;;;;;;;4.03;1.90;;;16.80;1.00;;;;;;5091233;28;20624;-80
2021/05/11 15:08:37;;;;;;;5.90;2.63;;;16.70;1.00;;;;;;5090719;28;20207;-79
2021/05/11 15:11:02;;;;;;;5.43;2.33;;;16.70;1.00;;;;;;5090868;28;20199;-80
2021/05/11 15:13:28;;;;;;;8.93;2.40;;;16.80;99.90;;;;;;5090480;28;20164;-79
2021/05/11 15:15:56;;;;;;;4.80;2.23;;;16.90;1.00;;;;;;5072197;28;20686;-80
2021/05/11 15:18:21;;;;;;;8.10;2.40;;;17.00;1.00;;;;;;5094114;28;20638;-83
2021/05/11 15:20:47;;;;;;;5.73;2.13;;;17.10;6.10;;;;;;5110710;28;20196;-81
2021/05/11 15:23:13;;;;;;;4.23;2.10;;;17.30;99.90;;;;;;5110730;28;20163;-79
2021/05/11 15:25:40;;;;;;;6.53;1.90;;;17.70;93.30;;;;;;5105307;28;20171;-79
2021/05/11 15:28:06;;;;;;;6.20;5.13;;;18.00;99.90;;;;;;5105067;28;20714;-81
2021/05/11 15:30:34;;;;;;;4.67;1.70;;;18.30;1.00;;;;;;5110257;28;20175;-78
2021/05/11 15:33:01;;;;;;;3.60;1.17;;;18.40;99.90;;;;;;5110207;28;20168;-81
2021/05/11 15:35:35;;;;;;;2.67;1.17;;;18.20;99.90;;;;;;5109961;28;20202;-81
2021/05/11 15:38:03;;;;;;;3.57;1.27;;;18.10;99.90;;;;;;5110825;28;20252;-78
2021/05/11 15:40:38;;;;;;;3.83;1.20;;;18.10;1.00;;;;;;5110371;28;20194;-80
2021/05/11 15:43:05;;;;;;;2.50;1.00;;;18.10;99.90;;;;;;5110815;28;20213;-81
2021/05/11 15:45:32;;;;;;;3.40;1.23;;;18.00;1.00;;;;;;5110302;28;20233;-79
2021/05/11 15:48:01;;;;;;;4.57;1.47;;;18.00;1.00;;;;;;5110443;28;20205;-80
2021/05/11 15:50:30;;;;;;;6.23;2.00;;;18.20;99.90;;;;;;5110458;28;20168;-80
2021/05/11 15:53:01;;;;;;;4.63;1.40;;;18.30;99.90;;;;;;5110849;28;20159;-78
2021/05/11 15:55:27;;;;;;;4.07;1.27;;;18.40;1.00;;;;;;5106586;28;20172;-78
2021/05/11 15:57:53;;;;;;;4.00;1.40;;;18.50;1.00;;;;;;5071900;28;20612;-81
2021/05/11 16:00:19;;;;;;;10.67;4.47;;;18.60;99.90;;;;;;5089588;28;20225;-81
2021/05/11 16:02:45;;;;;;;6.03;1.87;;;18.80;99.90;;;;;;5090131;28;20722;-79
2021/05/11 16:05:12;;;;;;;11.23;2.23;;;19.00;99.90;;;;;;5093174;28;20254;-80
2021/05/11 16:07:38;;;;;;;4.17;1.53;;;19.10;1.00;;;;;;5093901;28;20171;-79
2021/05/11 16:10:08;;;;;;;7.73;2.13;;;19.10;1.00;;;;;;5095684;28;20160;-82
2021/05/11 16:12:34;;;;;;;8.87;1.90;;;19.40;1.00;;;;;;5096720;28;20169;-80
2021/05/11 16:15:02;;;;;;;10.40;2.43;;;19.70;1.00;;;;;;5075218;28;20219;-79
2021/05/11 16:17:28;;;;;;;5.83;2.07;;;19.70;99.90;;;;;;5093536;28;20211;-80
2021/05/11 16:19:54;;;;;;;6.03;1.97;;;19.70;99.90;;;;;;5110683;28;20210;-80
2021/05/11 16:22:20;;;;;;;5.03;2.00;;;20.00;99.90;;;;;;5093781;28;20541;-79
2021/05/11 16:24:45;;;;;;;5.87;1.73;;;20.40;99.90;;;;;;5093431;28;20176;-80
2021/05/11 16:27:11;;;;;;;4.50;1.83;;;20.60;1.00;;;;;;5100942;28;20175;-78
2021/05/11 16:29:37;;;;;;;6.03;2.37;;;20.70;1.00;;;;;;5129003;27;20894;-79
2021/05/11 16:32:04;;;;;;;5.00;2.10;;;20.50;1.00;;;;;;5134868;27;20312;-83
2021/05/11 16:34:31;;;;;;;5.43;2.20;;;20.30;1.00;;;;;;5134561;27;20274;-80
2021/05/11 16:37:01;;;;;;;4.43;1.73;;;20.30;1.00;;;;;;5134223;27;20533;-81
2021/05/11 16:39:27;;;;;;;6.07;1.93;;;20.40;1.00;;;;;;5134575;27;20590;-82
2021/05/11 16:41:52;;;;;;;3.83;1.77;;;20.10;39.60;;;;;;5117196;27;20278;-81
2021/05/11 16:44:18;;;;;;;5.23;2.10;;;20.10;99.90;;;;;;5134510;27;20251;-81
2021/05/11 16:46:44;;;;;;;5.97;1.97;;;19.60;1.00;;;;;;5134758;27;20166;-80
2021/05/11 16:49:09;;;;;;;6.10;2.00;;;19.20;99.90;;;;;;5135310;27;20214;-78
2021/05/11 16:51:35;;;;;;;6.80;1.80;;;19.30;99.90;;;;;;5134236;27;20170;-79
2021/05/11 16:54:01;;;;;;;5.43;1.77;;;19.00;6.70;;;;;;5134138;27;20171;-79
2021/05/11 16:56:26;;;;;;;4.97;2.10;;;18.80;1.00;;;;;;5109763;27;20190;-79
2021/05/11 16:58:52;;;;;;;4.33;1.90;;;18.80;99.90;;;;;;5092691;28;20171;-79
2021/05/11 17:01:17;;;;;;;5.27;1.63;;;18.80;99.90;;;;;;5092802;28;20565;-80
2021/05/11 17:03:44;;;;;;;5.97;2.00;;;18.90;99.90;;;;;;5092943;28;20190;-81
2021/05/11 17:06:09;;;;;;;7.00;2.20;;;18.80;99.90;;;;;;5092894;28;20179;-79
2021/05/11 17:08:35;;;;;;;8.23;2.47;;;18.60;1.00;;;;;;5074314;28;20211;-80
2021/05/11 17:11:01;;;;;;;6.53;2.17;;;18.50;1.00;;;;;;5092553;28;20160;-78
2021/05/11 17:13:26;;;;;;;5.70;2.17;;;18.70;1.00;;;;;;5092191;28;20175;-79
2021/05/11 17:15:52;;;;;;;5.40;2.20;;;18.60;99.90;;;;;;5092167;28;20194;-77
2021/05/11 17:18:19;;;;;;;3.30;1.70;;;18.20;1.00;;;;;;5096008;28;20182;-80
2021/05/11 17:20:45;;;;;;;4.70;1.90;;;18.10;99.90;;;;;;5113107;28;20171;-79
2021/05/11 17:23:10;;;;;;;5.70;2.03;;;17.90;1.00;;;;;;5113136;28;20304;-79
2021/05/11 17:25:36;;;;;;;5.90;1.90;;;17.70;1.00;;;;;;5107836;28;20203;-79